Historyczne dane pomiarowe

Dodano dane terminowe – wersja testowa.

Dane z okresu 1951-2019

Wersja bazy: 1.34 [2019-03-16, lista zmian], aktualizacja planowana na 2019-04-15

Dane meteo z obszaru Polski uzyskane na podstawie danych udostępnionych przez Instytut Meteorologii i Gospodarki Wodnej – Państwowy Instytut Badawczy.

 

Wybierz Datę:    

       

TemperaturaWilgotnośćWiatrCiśnienieOpadyŚniegCzas trwania zjawisk
 Stacja t tx tn tng RH VA  wxwx mslp ppp RRR   cm mm wxwxwxwxwxwxwx
2012-10-10 5.5 9.4 3.2 1.9-- 8.0 1.0---- 0.0------------
2012-10-09 6.3 13.3 -1.0 -4.0-- 2.0 2.0---- 0.0------------
2012-10-08 4.7 6.4 3.5 2.0-- 8.0 1.0---- 4.2------------
2012-10-07 8.8 17.8 4.0 4.0-- 8.0 0.0---- 24.9------------
2012-10-06 16.0 20.2 12.0 9.2-- 4.0 4.7---- 1.1------------
2012-10-05 9.0 15.3 3.0 2.0-- 0.0 2.0---- 0.0------------
2012-10-04 12.2 19.7 5.5 3.0-- 0.0 3.0---- 9.2------------
2012-10-03 9.1 13.8 6.0 4.0-- 4.0 0.0---- 5.1------------
2012-10-02 13.0 17.8 10.3 7.0-- 8.0 0.0---- 15.0------------
2012-10-01 14.1 22.2 5.5 3.0-- 5.3 1.7---- 0.0------------
2012-09-30 10.1 17.0 6.8 5.2-- 4.7 0.3---- 0.0------------
2012-09-29 12.3 19.8 5.0 2.3-- 2.7 2.0---- 12.3------------
2012-09-28 10.3 16.7 7.4 5.5-- 0.7 1.0---- 0.0------------
2012-09-27 16.9 21.2 13.2 12.7-- 6.0 3.7---- 9.6------------
2012-09-26 16.1 21.3 7.2 4.8-- 0.0 5.3---- 0.0------------
2012-09-25 12.5 19.1 9.2 6.6-- 5.3 1.0---- 0.0------------
2012-09-24 11.7 20.2 2.6 0.9-- 0.0 2.0---- 0.3------------
2012-09-23 7.1 13.9 3.8 2.2-- 0.0 0.3---- 0.0------------
2012-09-22 10.3 16.0 2.9 0.4-- 7.3 2.3---- 0.0------------
2012-09-21 6.0 14.4 1.3 -0.4-- 2.0 0.7---- 0.0------------
2012-09-20 6.7 10.6 5.1 5.0-- 7.3 0.7---- 1.1------------
2012-09-19 13.2 20.6 7.4 7.0-- 5.3 2.0---- 16.8------------
2012-09-18 13.9 20.4 7.8 5.5-- 0.0 1.0---- 0.0------------
2012-09-17 10.7 20.0 5.1 2.7-- 0.0 0.3---- 0.0------------
2012-09-16 9.5 13.8 6.6 5.0-- 2.0 0.0---- 0.0------------
2012-09-15 8.7 12.7 5.1 3.6-- 8.0 0.3---- 0.0------------
2012-09-14 9.1 11.5 7.6 7.6-- 8.0 0.0---- 0.0------------
2012-09-13 10.0 15.4 7.9 7.9-- 8.0 0.0---- 17.0------------
2012-09-12 18.5 23.8 15.4 11.8-- 4.0 1.0---- 4.5------------
2012-09-11 17.6 26.2 11.8 7.9-- 0.0 1.3---- 0.0------------
2012-09-10 15.3 26.1 9.2 6.8-- 0.0 1.3---- 0.0------------
2012-09-09 14.9 21.2 12.3 10.4-- 0.0 0.7---- 0.0------------
2012-09-08 13.6 16.5 11.3 11.0-- 7.3 1.0---- 0.0------------
2012-09-07 11.6 18.6 3.4 1.1-- 0.7 0.7---- 1.8------------
2012-09-06 11.6 16.3 9.4 8.1-- 7.3 0.7---- 0.4------------
2012-09-05 15.4 22.0 10.0 7.7-- 2.7 0.3---- 1.4------------
2012-09-04 15.6 20.3 12.0 10.2-- 6.7 0.7---- 0.0------------
2012-09-03 15.5 20.5 11.6 9.9-- 5.3 0.3---- 0.0------------
2012-09-02 16.1 20.6 13.6 13.0-- 6.7 0.0---- 0.0------------
2012-09-01 14.5 16.7 13.3 13.0-- 8.0 0.3---- 5.5------------
2012-08-31 18.7 23.9 13.4 11.1-- 4.7 2.7---- 0.0------------
2012-08-30 15.5 24.5 9.7 7.1-- 2.0 0.3---- 0.0------------
2012-08-29 14.3 22.3 7.8 5.7-- 6.0 0.3---- 0.0------------
2012-08-28 11.4 21.4 4.0 1.9-- 0.0 0.7---- 0.0------------
2012-08-27 11.7 15.5 9.6 7.5-- 6.7 1.0---- 2.8------------
2012-08-26 15.8 18.0 14.0 12.5-- 8.0 0.3---- 3.8------------
2012-08-25 18.6 25.7 14.1 13.0-- 2.0 0.3---- 0.0------------
2012-08-24 20.1 28.6 13.9 12.1-- 5.3 1.3---- 2.1------------
2012-08-23 18.6 24.9 13.8 11.6-- 8.0 0.7---- 4.2------------
2012-08-22 21.2 29.3 14.5 12.8-- 0.0 0.7---- 5.6------------
2012-08-21 21.0 28.3 15.1 12.7-- 8.0 0.3---- 0.0------------
2012-08-20 20.4 31.0 13.0 10.2-- 0.0 1.0---- 0.0------------
2012-08-19 16.9 27.0 9.2 6.9-- 0.0 0.3---- 0.0------------
2012-08-18 15.5 22.2 10.7 8.9-- 0.0 0.7---- 0.0------------
2012-08-17 13.7 17.8 10.1 8.8-- 8.0 0.3---- 0.0------------
2012-08-16 14.0 20.4 8.1 6.6-- 0.0 0.3---- 0.0------------
2012-08-15 13.7 16.7 10.9 9.5-- 5.3 0.3---- 0.0------------
2012-08-14 11.0 13.4 6.7 5.3-- 8.0 1.7---- 3.5------------
2012-08-13 10.9 15.7 5.0 3.7-- 4.0 0.0---- 0.0------------
2012-08-12 10.7 14.1 7.9 7.7-- 8.0 0.3---- 5.0------------
367.9 ms

 

Źródłem pochodzenia danych jest Instytut Meteorologii i Gospodarki Wodnej – Państwowy Instytut Badawczy. Dane Instytutu Meteorologii i Gospodarki Wodnej – Państwowego Instytutu Badawczego zostały przetworzone.

Dane źródłowe można odnaleźć na stronie https://dane.imgw.pl